Time;durP1;ratioP1;P1;durP2;ratioP2;P2;SDS_P1;SDS_P2;PMS_P1;PMS_P2;Temp;Humidity;BMP_temperature;BMP_pressure;BME280_temperature;BME280_humidity;BME280_pressure;Samples;Min_cycle;Max_cycle;Signal;HPM_P1;HPM_P2
2022/05/21 04:22:20;;;;;;;17.63;3.72;;;12.50;92.70;;;;;;6033706;23;20252;31
2022/05/21 04:29:19;;;;;;;18.00;4.03;;;12.50;93.00;;;;;;4918494;29;20055;-85
2022/05/21 04:38:39;;;;;;;20.10;3.50;;;12.60;92.80;;;;;;4901368;29;20052;-82
2022/05/21 04:41:07;;;;;;;21.02;3.75;;;12.60;92.70;;;;;;4884031;29;20045;-81
2022/05/21 04:43:40;;;;;;;24.75;4.13;;;12.60;92.80;;;;;;4884036;29;20127;-82
2022/05/21 04:46:15;;;;;;;20.25;3.33;;;12.60;92.60;;;;;;4883716;29;20119;-85
2022/05/21 04:48:49;;;;;;;18.67;4.78;;;12.70;92.60;;;;;;4883572;29;20389;-82
2022/05/21 04:51:20;;;;;;;24.85;4.25;;;12.70;92.60;;;;;;4882834;29;20037;-84
2022/05/21 04:54:00;;;;;;;24.63;3.58;;;12.70;92.60;;;;;;4882676;29;20100;-82
2022/05/21 04:56:31;;;;;;;20.38;3.67;;;12.70;92.50;;;;;;4882649;29;20553;-84
2022/05/21 04:59:03;;;;;;;25.35;5.05;;;12.70;92.40;;;;;;4882612;29;20036;-82
2022/05/21 05:01:34;;;;;;;27.90;4.65;;;12.80;92.60;;;;;;4882517;29;20044;-81
2022/05/21 05:04:02;;;;;;;21.70;3.75;;;12.90;92.40;;;;;;4867060;29;20040;-81
2022/05/21 05:06:32;;;;;;;22.35;3.72;;;12.90;92.10;;;;;;4883649;29;20041;-84
2022/05/21 05:09:12;;;;;;;19.77;4.18;;;13.00;92.40;;;;;;4899158;29;20040;-84
2022/05/21 05:11:56;;;;;;;23.55;3.95;;;13.00;92.00;;;;;;4883451;29;20063;-85
2022/05/21 05:14:22;;;;;;;22.55;4.28;;;13.00;92.00;;;;;;4883394;29;20049;-81
2022/05/21 05:16:50;;;;;;;18.65;3.67;;;13.00;91.70;;;;;;4883275;29;20036;-83
2022/05/21 05:19:16;;;;;;;21.95;3.63;;;13.10;91.70;;;;;;4883349;29;20112;-83
2022/05/21 05:21:48;;;;;;;22.17;4.90;;;13.20;92.00;;;;;;4887736;29;20044;-81
2022/05/21 05:24:14;;;;;;;20.55;3.47;;;13.20;91.70;;;;;;4913692;29;20044;-77
2022/05/21 05:26:42;;;;;;;22.95;5.05;;;13.20;91.50;;;;;;4896106;29;20131;-78
2022/05/21 05:29:11;;;;;;;22.52;4.55;;;13.10;91.50;;;;;;4896220;29;20103;-78
2022/05/21 05:31:38;;;;;;;20.35;3.90;;;13.20;91.10;;;;;;4892031;29;20068;-83
2022/05/21 05:34:08;;;;;;;;;;;13.20;91.10;;;;;;4883485;29;20449;-83
2022/05/21 05:36:37;;;;;;;22.60;3.72;;;13.30;91.10;;;;;;4883110;29;20009;-83
2022/05/21 05:39:06;;;;;;;21.52;3.90;;;13.30;90.80;;;;;;4883064;29;20382;-83
2022/05/21 05:41:39;;;;;;;23.70;4.13;;;13.40;90.90;;;;;;4883171;29;20100;-83
2022/05/21 05:44:08;;;;;;;21.73;3.80;;;13.50;90.50;;;;;;4883053;29;20363;-83
2022/05/21 05:46:36;;;;;;;23.80;4.03;;;13.50;90.10;;;;;;4882951;29;20496;-84
2022/05/21 05:49:03;;;;;;;20.73;4.00;;;13.60;90.30;;;;;;4882740;29;20482;-82
2022/05/21 05:51:31;;;;;;;;;;;13.60;90.10;;;;;;4883385;29;20033;-81
2022/05/21 05:54:07;;;;;;;18.08;3.47;;;13.60;89.70;;;;;;4882517;29;20361;-82
2022/05/21 05:56:42;;;;;;;15.48;3.40;;;13.60;90.20;;;;;;4898058;29;20032;-83
2022/05/21 06:04:50;;;;;;;33.95;4.80;;;13.70;89.60;;;;;;4897814;29;20083;-82
2022/05/21 06:07:21;;;;;;;23.02;4.22;;;13.80;89.90;;;;;;4882405;29;20075;-82
2022/05/21 06:09:47;;;;;;;22.13;4.43;;;13.90;89.90;;;;;;4882455;29;20040;-81
2022/05/21 06:12:23;;;;;;;16.15;4.15;;;14.00;89.10;;;;;;4882695;29;20104;-84
2022/05/21 06:14:49;;;;;;;22.95;4.25;;;14.10;89.60;;;;;;4881505;29;20100;-83
2022/05/21 06:17:18;;;;;;;20.92;3.72;;;14.10;87.70;;;;;;4882414;29;20048;-81
2022/05/21 06:19:54;;;;;;;20.52;3.80;;;14.10;87.40;;;;;;4882100;29;20143;-84
2022/05/21 06:22:47;;;;;;;18.77;3.38;;;14.20;87.40;;;;;;4882432;29;20064;-82
2022/05/21 06:25:23;;;;;;;15.77;3.47;;;14.20;87.60;;;;;;4882440;29;20104;-81
2022/05/21 06:27:53;;;;;;;18.63;3.72;;;14.40;87.80;;;;;;4882194;29;20091;-82
2022/05/21 06:30:22;;;;;;;20.80;3.47;;;14.50;87.50;;;;;;4881795;29;20037;-85
2022/05/21 06:32:57;;;;;;;18.77;3.92;;;14.60;86.70;;;;;;4881798;29;20087;-82
2022/05/21 06:36:32;;;;;;;18.77;3.90;;;14.80;85.30;;;;;;4867351;29;20084;-82
2022/05/21 06:39:01;;;;;;;18.35;4.47;;;14.90;85.10;;;;;;4807546;29;20092;-85
2022/05/21 06:41:37;;;;;;;23.38;3.75;;;15.00;85.90;;;;;;4807619;29;20506;-84
2022/05/21 06:44:07;;;;;;;29.95;4.45;;;15.20;85.00;;;;;;4881449;29;20041;-82
2022/05/21 06:50:03;;;;;;;16.08;3.40;;;15.30;83.50;;;;;;4897254;29;20047;-85
2022/05/21 06:52:32;;;;;;;14.30;3.40;;;15.40;82.20;;;;;;4881903;29;20033;-84
2022/05/21 06:55:01;;;;;;;19.55;4.40;;;15.50;83.30;;;;;;4891852;29;20037;-80
2022/05/21 06:57:29;;;;;;;17.40;3.42;;;15.50;83.40;;;;;;4900071;29;20036;-79
2022/05/21 06:59:56;;;;;;;26.17;4.32;;;15.40;82.60;;;;;;4895679;29;20081;-77
2022/05/21 07:02:33;;;;;;;;;;;15.30;83.00;;;;;;4894832;29;20377;-77
2022/05/21 07:07:46;;;;;;;26.48;7.97;;;15.30;83.10;;;;;;4897747;29;20049;-80
2022/05/21 07:10:31;;;;;;;20.52;5.00;;;15.20;82.70;;;;;;4881458;29;20044;-85
2022/05/21 07:13:03;;;;;;;25.00;4.45;;;15.10;82.30;;;;;;4881589;29;20124;-83
2022/05/21 07:15:28;;;;;;;18.77;3.45;;;15.20;83.20;;;;;;4881479;29;20100;-83
2022/05/21 07:18:15;;;;;;;18.75;3.63;;;15.30;82.30;;;;;;4881374;29;20072;-83
2022/05/21 07:20:53;;;;;;;23.10;3.83;;;15.20;81.60;;;;;;4881704;29;20036;-84
2022/05/21 07:23:36;;;;;;;25.67;3.70;;;15.10;81.10;;;;;;4881330;29;20044;-81
2022/05/21 07:26:02;;;;;;;12.95;3.15;;;15.20;82.20;;;;;;4883254;29;20478;-80
2022/05/21 07:28:34;;;;;;;19.38;3.58;;;15.30;82.40;;;;;;4885157;29;20051;-81
2022/05/21 07:31:00;;;;;;;17.83;3.90;;;15.50;82.40;;;;;;4885276;29;20123;-81
2022/05/21 07:33:33;;;;;;;19.83;3.50;;;15.50;81.20;;;;;;4885125;29;20124;-80
2022/05/21 07:35:59;;;;;;;19.10;4.22;;;15.50;81.20;;;;;;4885070;29;20040;-82
2022/05/21 07:38:37;;;;;;;18.10;3.75;;;15.50;81.80;;;;;;4885440;29;20502;-78
2022/05/21 07:41:03;;;;;;;22.80;3.92;;;15.50;81.80;;;;;;4901776;29;20115;-84
2022/05/21 07:43:33;;;;;;;20.00;3.83;;;15.50;81.10;;;;;;4884858;29;20545;-80
2022/05/21 07:46:00;;;;;;;23.33;3.80;;;15.60;81.90;;;;;;4885222;29;20036;-80
2022/05/21 07:48:27;;;;;;;17.45;3.65;;;15.90;81.10;;;;;;4885116;29;20044;-79
2022/05/21 07:51:03;;;;;;;14.60;2.85;;;16.10;79.60;;;;;;4884580;29;20119;-78
2022/05/21 07:53:35;;;;;;;27.15;3.92;;;16.10;78.20;;;;;;4885092;29;20037;-78
2022/05/21 07:56:02;;;;;;;16.98;3.25;;;16.20;78.60;;;;;;4884555;29;20032;-80
2022/05/21 07:58:31;;;;;;;16.88;3.67;;;16.10;78.70;;;;;;4884532;29;20057;-77
2022/05/21 08:01:05;;;;;;;17.63;2.97;;;16.30;78.80;;;;;;4885006;29;20098;-76
2022/05/21 08:03:31;;;;;;;20.20;4.65;;;16.40;76.80;;;;;;4884468;29;20037;-76
2022/05/21 08:06:00;;;;;;;13.23;4.25;;;16.50;77.30;;;;;;4884414;29;20123;-78
2022/05/21 08:08:54;;;;;;;20.33;3.30;;;16.70;77.10;;;;;;4869116;29;20477;-81
2022/05/21 08:11:26;;;;;;;26.63;3.22;;;16.90;77.00;;;;;;4869448;29;20051;-78
2022/05/21 08:13:52;;;;;;;14.70;3.05;;;16.70;76.70;;;;;;4884224;29;20478;-77
2022/05/21 08:16:22;;;;;;;16.15;3.00;;;16.80;76.70;;;;;;4884263;29;20493;-76
2022/05/21 08:18:48;;;;;;;16.45;3.30;;;16.90;77.30;;;;;;4884552;29;20473;-77
2022/05/21 08:21:14;;;;;;;19.00;3.33;;;16.70;76.10;;;;;;4884602;29;20039;-79
2022/05/21 08:29:12;;;;;;;;;;;16.80;77.00;;;;;;4900265;29;20047;-79
2022/05/21 08:31:46;;;;;;;16.60;2.95;;;16.60;76.00;;;;;;4900052;29;19967;-77
2022/05/21 08:34:12;;;;;;;16.02;3.38;;;16.90;76.40;;;;;;4883949;29;20040;-76
2022/05/21 08:36:38;;;;;;;16.85;3.28;;;17.10;75.20;;;;;;4883241;29;20058;-76
2022/05/21 08:39:04;;;;;;;16.58;3.15;;;17.30;73.90;;;;;;4883805;29;20052;-78
2022/05/21 08:41:32;;;;;;;16.75;3.20;;;17.50;74.50;;;;;;4884092;29;20112;-79
2022/05/21 08:44:08;;;;;;;18.45;3.53;;;17.50;74.00;;;;;;4884005;29;20045;-77
2022/05/21 08:46:52;;;;;;;17.33;3.92;;;17.50;73.50;;;;;;4884024;29;20127;-79
2022/05/21 08:49:34;;;;;;;13.70;3.40;;;17.60;74.60;;;;;;4883740;29;20090;-78
2022/05/21 08:52:23;;;;;;;19.95;3.78;;;17.60;73.40;;;;;;4883578;29;20044;-77
2022/05/21 08:54:52;;;;;;;22.75;4.57;;;17.70;73.00;;;;;;4883870;29;20127;-78
2022/05/21 08:57:46;;;;;;;20.40;3.53;;;17.60;72.70;;;;;;4883875;29;20040;-77
2022/05/21 09:00:18;;;;;;;17.58;3.60;;;17.70;73.40;;;;;;4881668;29;20099;-79
2022/05/21 09:02:44;;;;;;;22.67;4.65;;;17.40;72.10;;;;;;4883339;29;20481;-77
2022/05/21 09:05:20;;;;;;;20.58;3.40;;;17.40;74.80;;;;;;4883611;29;20095;-79
2022/05/21 09:07:58;;;;;;;23.30;3.23;;;17.40;73.20;;;;;;4883487;29;20482;-76
2022/05/21 09:10:29;;;;;;;18.83;3.28;;;17.40;73.20;;;;;;4883277;29;20048;-78
2022/05/21 09:13:03;;;;;;;18.63;3.47;;;17.40;73.10;;;;;;4891307;29;20490;-76
2022/05/21 09:18:14;;;;;;;14.82;2.97;;;17.40;72.40;;;;;;4905421;29;20115;-76
2022/05/21 09:21:02;;;;;;;22.35;3.65;;;17.40;73.60;;;;;;4887890;29;20096;-76
2022/05/21 09:23:46;;;;;;;15.48;3.72;;;17.70;73.00;;;;;;4885798;29;20045;-77
2022/05/21 09:26:13;;;;;;;21.88;3.63;;;17.80;72.30;;;;;;4883574;29;20044;-77
2022/05/21 09:28:39;;;;;;;;;;;17.80;72.90;;;;;;4883826;29;20354;-77
2022/05/21 09:31:06;;;;;;;21.42;3.85;;;17.70;72.30;;;;;;4867603;29;19927;-80
2022/05/21 09:33:40;;;;;;;18.23;3.47;;;17.80;72.80;;;;;;4883176;29;20505;-79
2022/05/21 09:36:07;;;;;;;15.75;3.67;;;17.80;74.00;;;;;;4883006;29;20092;-76
2022/05/21 09:38:51;;;;;;;14.07;2.85;;;17.80;73.00;;;;;;4883016;29;20055;-78
2022/05/21 09:41:28;;;;;;;19.48;3.95;;;17.80;71.70;;;;;;4882804;29;20043;-79
2022/05/21 09:46:42;;;;;;;19.70;4.03;;;18.10;71.80;;;;;;4898516;29;20217;-78
2022/05/21 09:49:23;;;;;;;16.05;3.28;;;18.10;71.50;;;;;;4881682;29;20128;-77
2022/05/21 09:52:19;;;;;;;23.17;3.88;;;17.80;71.10;;;;;;4882830;29;20036;-76
2022/05/21 09:54:45;;;;;;;19.38;3.22;;;17.60;71.20;;;;;;4880664;29;20148;-78
2022/05/21 09:57:30;;;;;;;23.17;3.47;;;17.60;72.30;;;;;;4883089;29;20080;-78
2022/05/21 10:00:21;;;;;;;21.35;3.33;;;17.40;72.10;;;;;;4867566;29;20060;-79
2022/05/21 10:02:56;;;;;;;15.63;3.25;;;17.60;72.40;;;;;;4882936;29;20045;-77
2022/05/21 10:05:54;;;;;;;13.10;2.97;;;17.60;72.20;;;;;;4882397;29;20044;-77
2022/05/21 10:11:29;;;;;;;16.63;3.47;;;17.70;72.50;;;;;;4898292;29;20057;-80
2022/05/21 10:14:06;;;;;;;18.25;3.20;;;17.90;71.40;;;;;;4882407;29;20056;-83
2022/05/21 10:16:45;;;;;;;19.55;4.20;;;18.10;71.40;;;;;;4882205;29;20045;-81
2022/05/21 10:19:36;;;;;;;20.88;5.00;;;18.40;69.70;;;;;;4882305;29;20036;-81
2022/05/21 10:22:20;;;;;;;19.40;4.30;;;18.40;70.90;;;;;;4882359;29;20079;-80
2022/05/21 10:24:51;;;;;;;18.38;4.47;;;18.40;70.50;;;;;;4882646;29;20084;-82
2022/05/21 10:28:26;;;;;;;19.38;3.63;;;18.40;70.50;;;;;;4882009;29;20128;-80
2022/05/21 10:31:19;;;;;;;15.77;3.78;;;18.20;69.30;;;;;;4825713;29;20093;-79
2022/05/21 10:34:17;;;;;;;17.70;3.65;;;18.20;69.70;;;;;;4823893;29;20522;-79
2022/05/21 10:57:09;;;;;;;16.20;3.40;;;18.80;69.90;;;;;;5405133;23;20097;-79
2022/05/21 12:50:25;;;;;;;14.13;3.33;;;19.60;63.40;;;;;;4881818;29;20145;-82
2022/05/21 14:20:23;;;;;;;;;;;;;;;;;;;;;
2022/05/21 14:27:43;;;;;;;10.57;2.08;;;19.80;63.00;;;;;;4785959;30;20397;-80
2022/05/21 14:31:06;;;;;;;17.85;3.30;;;19.90;60.80;;;;;;4770457;30;20055;-79
2022/05/21 14:34:21;;;;;;;14.63;3.10;;;19.60;62.30;;;;;;4786349;30;20051;-77
2022/05/21 14:36:57;;;;;;;12.75;2.78;;;19.60;62.00;;;;;;4829897;29;20064;-74
2022/05/21 14:39:23;;;;;;;13.38;3.13;;;19.30;61.30;;;;;;4869128;29;20068;-75
2022/05/21 14:41:49;;;;;;;19.30;3.60;;;19.20;63.40;;;;;;4919300;29;20054;-78
2022/05/21 14:44:21;;;;;;;15.32;3.42;;;18.90;64.90;;;;;;4919202;29;20043;-73
2022/05/21 14:49:31;;;;;;;15.13;3.17;;;18.70;65.50;;;;;;4918653;29;20079;-73
2022/05/21 15:06:40;;;;;;;19.27;3.33;;;18.50;66.20;;;;;;4858585;29;20052;-82
2022/05/21 15:10:07;;;;;;;;;;;;;;;;;;;;;
2022/05/21 15:16:54;;;;;;;14.45;3.08;;;19.00;65.90;;;;;;4794185;29;20092;-79
2022/05/21 15:19:39;;;;;;;;;;;;;;;;;;;;;
2022/05/21 15:50:27;;;;;;;;;;;;;;;;;;;;;
2022/05/21 15:53:25;;;;;;;13.60;2.58;;;19.30;60.00;;;;;;4914825;29;20138;-78
2022/05/21 15:55:51;;;;;;;13.82;2.53;;;18.90;60.30;;;;;;4922627;29;20142;-75
2022/05/21 15:58:17;;;;;;;9.80;2.00;;;18.70;61.30;;;;;;4906921;29;20485;-76
2022/05/21 16:00:45;;;;;;;;;;;18.80;61.30;;;;;;4922626;29;20488;-75
2022/05/21 16:03:10;;;;;;;10.50;2.00;;;18.90;61.00;;;;;;4906852;29;20373;-75
2022/05/21 16:05:37;;;;;;;14.30;2.05;;;19.00;61.10;;;;;;4922704;29;20126;-76
2022/05/21 16:08:02;;;;;;;;;;;19.30;60.30;;;;;;4920744;29;20075;-82
2022/05/21 16:10:30;;;;;;;10.55;2.10;;;19.10;59.30;;;;;;4905845;29;19965;-78
2022/05/21 16:12:57;;;;;;;14.43;2.20;;;19.10;59.80;;;;;;4906255;29;20043;-80
2022/05/21 16:15:27;;;;;;;12.73;2.30;;;19.00;59.30;;;;;;4922536;29;20050;-78
2022/05/21 16:17:53;;;;;;;8.13;1.95;;;18.90;59.80;;;;;;4922022;29;20039;-76
2022/05/21 16:20:20;;;;;;;13.95;2.67;;;18.60;60.00;;;;;;4906109;29;20127;-74
2022/05/21 16:22:46;;;;;;;12.13;2.53;;;18.30;61.00;;;;;;4921760;29;20095;-74
2022/05/21 16:25:14;;;;;;;12.88;2.85;;;18.20;62.50;;;;;;4921872;29;20040;-76
2022/05/21 16:27:43;;;;;;;12.98;2.60;;;18.10;62.90;;;;;;4922466;29;20048;-74
2022/05/21 16:30:09;;;;;;;10.70;2.63;;;17.90;62.70;;;;;;4918081;29;20073;-74
2022/05/21 16:32:35;;;;;;;13.38;2.60;;;17.90;63.70;;;;;;4917271;29;20035;-75
2022/05/21 16:35:02;;;;;;;18.95;3.03;;;17.70;64.20;;;;;;4903621;29;20376;-76
2022/05/21 16:37:28;;;;;;;15.68;2.47;;;17.60;63.90;;;;;;4904843;29;20059;-78
2022/05/21 16:39:54;;;;;;;;;;;17.60;65.00;;;;;;4904742;29;20456;-79
2022/05/21 16:42:23;;;;;;;13.98;3.08;;;17.50;66.70;;;;;;4919715;29;20001;-79
2022/05/21 16:44:53;;;;;;;13.50;3.05;;;17.30;66.40;;;;;;4920306;29;20044;-76
2022/05/21 16:47:19;;;;;;;14.95;2.70;;;17.30;66.30;;;;;;4920015;29;20054;-77
2022/05/21 16:49:45;;;;;;;14.80;3.10;;;17.30;66.10;;;;;;4919826;29;20421;-75
2022/05/21 16:52:15;;;;;;;13.30;2.92;;;17.30;66.50;;;;;;4904048;29;20044;-73
2022/05/21 16:54:41;;;;;;;13.48;3.00;;;17.30;66.30;;;;;;4917896;29;20055;-73
2022/05/21 16:57:08;;;;;;;15.35;2.80;;;17.20;66.20;;;;;;4904323;29;20047;-71
2022/05/21 17:06:58;;;;;;;15.55;3.13;;;16.80;66.60;;;;;;5448393;23;20114;-78
2022/05/21 17:09:24;;;;;;;8.23;1.70;;;16.70;67.00;;;;;;4905469;29;20047;-78
2022/05/21 17:11:50;;;;;;;14.98;2.42;;;16.50;66.60;;;;;;4918269;29;20112;-79
2022/05/21 17:14:17;;;;;;;18.27;2.90;;;16.40;67.60;;;;;;4917883;29;20408;-75
2022/05/21 17:16:43;;;;;;;13.40;2.78;;;16.40;67.90;;;;;;4902251;29;20048;-77
2022/05/21 17:19:09;;;;;;;12.68;3.55;;;16.40;68.20;;;;;;4886781;29;20393;-75
2022/05/21 17:22:08;;;;;;;9.07;2.90;;;16.30;68.40;;;;;;4901950;29;20044;-77
2022/05/21 17:24:35;;;;;;;10.68;2.70;;;16.30;68.80;;;;;;4902141;29;20125;-75
2022/05/21 17:27:00;;;;;;;7.95;2.00;;;16.20;68.50;;;;;;4917581;29;20047;-76
2022/05/21 17:32:19;;;;;;;16.88;3.38;;;16.20;68.70;;;;;;4901753;29;20055;-75
2022/05/21 17:34:44;;;;;;;11.10;2.55;;;16.10;69.20;;;;;;4886467;29;20036;-75
2022/05/21 17:37:11;;;;;;;11.70;2.65;;;16.10;69.50;;;;;;4917442;29;20035;-73
2022/05/21 17:39:36;;;;;;;16.17;3.08;;;16.10;69.30;;;;;;4886411;29;20397;-74
2022/05/21 17:42:03;;;;;;;12.07;2.55;;;16.10;70.30;;;;;;4918784;29;20068;-76
2022/05/21 17:44:32;;;;;;;12.23;2.28;;;15.90;69.40;;;;;;4886190;29;20063;-78
2022/05/21 17:46:58;;;;;;;10.63;2.53;;;15.80;69.40;;;;;;4917624;29;20044;-75
2022/05/21 17:49:26;;;;;;;14.98;2.67;;;15.80;69.60;;;;;;4917437;29;20136;-75
2022/05/21 17:51:55;;;;;;;14.45;2.90;;;15.80;70.00;;;;;;4901834;29;20040;-76
2022/05/21 17:54:36;;;;;;;12.75;2.47;;;15.70;70.60;;;;;;4875908;29;20062;-73
2022/05/21 17:57:02;;;;;;;16.05;3.03;;;15.70;70.30;;;;;;4889712;29;20040;-73
2022/05/21 17:59:30;;;;;;;13.02;3.03;;;15.60;70.20;;;;;;4888542;29;20052;-78
2022/05/21 18:01:59;;;;;;;13.88;2.72;;;15.60;70.30;;;;;;4876478;29;20044;-76
2022/05/21 18:04:25;;;;;;;14.77;2.88;;;15.50;71.30;;;;;;4891836;29;20036;-76
2022/05/21 18:06:54;;;;;;;15.13;3.30;;;15.50;70.60;;;;;;4885058;29;20054;-77
2022/05/21 18:09:19;;;;;;;10.57;2.55;;;15.50;71.00;;;;;;4876325;29;20489;-75
2022/05/21 18:11:45;;;;;;;12.50;2.90;;;15.40;71.40;;;;;;4878159;29;20129;-76
2022/05/21 18:14:11;;;;;;;15.88;2.90;;;15.40;72.10;;;;;;4882129;29;20040;-76
2022/05/21 18:19:25;;;;;;;11.05;2.72;;;15.30;71.90;;;;;;4892825;29;20044;-77
2022/05/21 18:21:54;;;;;;;14.43;2.70;;;15.30;72.80;;;;;;4885010;29;20068;-77
2022/05/21 18:28:25;;;;;;;15.40;3.17;;;15.20;73.40;;;;;;4845297;29;20085;-80
2022/05/21 18:39:40;;;;;;;14.02;3.47;;;15.10;74.00;;;;;;4778956;30;20075;-82
2022/05/21 18:42:07;;;;;;;13.57;2.92;;;15.10;74.60;;;;;;4770709;30;20142;-79
2022/05/21 18:44:32;;;;;;;12.27;3.03;;;15.00;74.30;;;;;;4772998;29;20054;-75
2022/05/21 18:46:58;;;;;;;18.83;3.25;;;15.00;74.20;;;;;;4809521;29;20052;-75
2022/05/21 18:49:54;;;;;;;12.85;3.00;;;15.00;74.40;;;;;;4813085;29;20056;-84
2022/05/21 18:52:51;;;;;;;13.63;3.67;;;14.90;74.90;;;;;;4848551;29;20045;-84
2022/05/21 19:02:41;;;;;;;17.33;3.28;;;14.70;75.80;;;;;;4795458;29;20112;-77
2022/05/21 19:05:11;;;;;;;14.55;3.25;;;14.60;76.10;;;;;;4882271;29;20422;-75
2022/05/21 19:07:39;;;;;;;12.90;3.25;;;14.60;76.60;;;;;;4887513;29;20051;-76
2022/05/21 19:10:52;;;;;;;12.25;2.85;;;14.60;76.90;;;;;;4883125;29;20135;-82
2022/05/21 19:13:21;;;;;;;16.38;3.20;;;14.50;77.90;;;;;;4880803;29;20044;-79
2022/05/21 19:15:48;;;;;;;13.05;3.03;;;14.50;77.00;;;;;;4880208;29;20071;-79
2022/05/21 19:20:59;;;;;;;13.05;3.92;;;14.40;77.30;;;;;;4878187;29;20036;-75
2022/05/21 19:23:29;;;;;;;13.05;3.20;;;14.30;77.60;;;;;;4881517;29;20596;-73
2022/05/21 19:25:54;;;;;;;13.00;3.65;;;14.30;78.60;;;;;;4896256;29;20033;-77
2022/05/21 19:28:20;;;;;;;16.65;3.78;;;14.20;78.00;;;;;;4883874;29;20036;-72
2022/05/21 19:30:47;;;;;;;14.30;4.05;;;14.10;78.60;;;;;;4901093;29;20076;-72
2022/05/21 19:33:14;;;;;;;15.52;3.67;;;14.00;79.00;;;;;;4887946;29;20053;-74
2022/05/21 19:35:39;;;;;;;13.70;4.07;;;14.00;78.90;;;;;;4881171;29;20386;-74
2022/05/21 19:38:05;;;;;;;11.60;3.08;;;13.90;79.40;;;;;;4885342;29;20056;-74
2022/05/21 19:43:15;;;;;;;16.92;4.22;;;13.90;79.90;;;;;;4899867;29;20502;-77
2022/05/21 19:45:42;;;;;;;15.48;4.15;;;13.80;79.80;;;;;;4883340;29;20037;-73
2022/05/21 19:48:07;;;;;;;15.35;4.28;;;13.70;80.50;;;;;;4880931;29;20049;-77
2022/05/21 19:50:33;;;;;;;15.27;3.80;;;13.60;80.60;;;;;;4881288;29;20389;-71
2022/05/21 19:52:59;;;;;;;14.43;4.38;;;13.60;80.80;;;;;;4894687;29;20119;-74
2022/05/21 19:55:26;;;;;;;16.17;4.38;;;13.50;81.00;;;;;;4865024;29;20192;-76
2022/05/21 19:57:52;;;;;;;14.45;3.83;;;13.50;80.60;;;;;;4883342;29;20045;-73
2022/05/21 20:00:39;;;;;;;14.35;4.35;;;13.50;80.80;;;;;;4881511;29;20103;-80
2022/05/21 20:07:46;;;;;;;12.88;5.00;;;13.40;82.10;;;;;;4825612;29;20049;-80
2022/05/21 20:11:38;;;;;;;;;;;;;;;;;;;;;
2022/05/21 20:27:52;;;;;;;15.13;4.18;;;12.80;81.20;;;;;;5057200;23;20051;-80
2022/05/21 20:30:51;;;;;;;13.75;3.95;;;12.80;81.90;;;;;;4809179;29;20043;-79
2022/05/21 20:33:46;;;;;;;14.38;3.72;;;12.60;81.00;;;;;;4837409;29;20041;-79
2022/05/21 20:36:32;;;;;;;14.20;3.75;;;12.60;82.40;;;;;;4849326;29;20429;-76
2022/05/21 20:39:01;;;;;;;11.20;3.92;;;12.50;81.70;;;;;;4880302;29;20037;-77
2022/05/21 20:41:27;;;;;;;12.63;3.80;;;12.40;81.80;;;;;;4877414;29;20044;-77
2022/05/21 20:43:56;;;;;;;17.77;7.60;;;12.30;81.90;;;;;;4893387;29;20462;-78
2022/05/21 20:46:32;;;;;;;26.23;8.50;;;12.20;82.30;;;;;;4875378;29;20045;-78
2022/05/21 20:49:44;;;;;;;19.05;7.10;;;12.20;82.70;;;;;;4878658;29;20123;-80
2022/05/21 20:52:33;;;;;;;19.25;6.40;;;12.20;84.20;;;;;;4873362;29;20041;-80
2022/05/21 20:55:15;;;;;;;15.30;4.90;;;12.00;83.60;;;;;;4874413;29;20054;-79
2022/05/21 20:58:13;;;;;;;18.90;5.05;;;12.00;83.70;;;;;;4886505;29;20052;-78
2022/05/21 21:01:18;;;;;;;12.40;4.53;;;11.90;85.10;;;;;;4889748;29;20127;-74
2022/05/21 21:03:44;;;;;;;13.90;5.32;;;11.70;85.10;;;;;;4883697;29;20171;-74
2022/05/21 21:06:09;;;;;;;21.02;5.68;;;11.60;84.60;;;;;;4888074;29;20166;-77
2022/05/21 21:08:35;;;;;;;15.98;5.45;;;11.70;85.70;;;;;;4883314;29;20545;-76
2022/05/21 21:11:01;;;;;;;20.08;5.60;;;11.60;85.70;;;;;;4899953;29;20044;-77
2022/05/21 21:13:34;;;;;;;16.27;5.25;;;11.50;85.60;;;;;;4895107;29;20033;-79
2022/05/21 21:16:11;;;;;;;14.10;5.10;;;11.50;85.80;;;;;;4894076;29;20036;-79
2022/05/21 21:18:47;;;;;;;15.73;5.25;;;11.50;86.60;;;;;;4886869;29;20037;-80
2022/05/21 21:21:23;;;;;;;15.65;5.40;;;11.40;86.50;;;;;;4863241;29;20040;-79
2022/05/21 21:24:31;;;;;;;15.90;5.88;;;11.50;87.00;;;;;;4894492;29;20056;-77
2022/05/21 21:27:01;;;;;;;17.13;5.55;;;11.40;87.80;;;;;;4876486;29;20045;-78
2022/05/21 21:29:27;;;;;;;18.08;6.00;;;11.30;86.70;;;;;;4888113;29;20047;-78
2022/05/21 21:31:58;;;;;;;17.55;5.47;;;11.30;86.70;;;;;;4872261;29;20067;-79
2022/05/21 21:34:26;;;;;;;17.73;5.78;;;11.30;87.00;;;;;;4872229;29;20050;-78
2022/05/21 21:36:57;;;;;;;14.60;5.32;;;11.30;86.60;;;;;;4872581;29;20103;-78
2022/05/21 21:39:34;;;;;;;13.88;5.47;;;11.30;86.90;;;;;;4867624;29;20068;-78
2022/05/21 21:42:09;;;;;;;15.73;5.78;;;11.40;87.70;;;;;;4873834;29;20033;-79
2022/05/21 21:44:41;;;;;;;16.23;5.78;;;11.20;87.50;;;;;;4877114;29;20121;-78
2022/05/21 21:47:10;;;;;;;17.55;5.95;;;11.20;87.70;;;;;;4878099;29;20078;-80
2022/05/21 21:49:36;;;;;;;10.70;4.60;;;11.10;87.90;;;;;;4878751;29;20126;-77
2022/05/21 21:52:04;;;;;;;13.05;4.53;;;11.00;88.00;;;;;;4901737;29;20108;-80
2022/05/21 21:54:36;;;;;;;14.65;4.63;;;11.00;87.90;;;;;;4882789;29;20127;-80
2022/05/21 21:57:15;;;;;;;19.08;5.78;;;10.90;87.90;;;;;;4883497;29;20041;-79
2022/05/21 22:02:36;;;;;;;17.63;7.22;;;10.80;88.90;;;;;;4882345;29;20044;-80
2022/05/21 22:05:15;;;;;;;17.95;6.55;;;10.80;89.30;;;;;;4882590;29;20040;-79
2022/05/21 22:07:53;;;;;;;20.20;7.03;;;10.70;88.90;;;;;;4865943;29;20044;-80
2022/05/21 22:10:34;;;;;;;;;;;;;;;;;;;;;
2022/05/21 22:13:20;;;;;;;17.42;6.78;;;10.70;88.80;;;;;;4882506;29;20525;-79
2022/05/21 22:16:00;;;;;;;18.67;6.95;;;10.60;89.10;;;;;;4851049;29;20047;-79
2022/05/21 22:18:51;;;;;;;19.33;7.13;;;10.60;89.80;;;;;;4882778;29;20043;-79
2022/05/21 22:21:32;;;;;;;15.68;6.30;;;10.50;89.60;;;;;;4867259;29;20510;-80
2022/05/21 22:24:14;;;;;;;16.08;6.40;;;10.60;90.00;;;;;;4882562;29;20079;-80
2022/05/21 22:26:59;;;;;;;16.90;6.90;;;10.80;89.20;;;;;;4877877;29;20060;-79
2022/05/21 22:30:07;;;;;;;13.45;5.88;;;10.50;89.70;;;;;;4864525;29;20115;-78
2022/05/21 22:32:53;;;;;;;9.32;4.75;;;10.20;90.60;;;;;;4871562;29;20060;-76
2022/05/21 22:38:32;;;;;;;19.25;6.38;;;10.10;90.30;;;;;;4841616;29;20072;-79
2022/05/21 22:41:29;;;;;;;18.40;6.90;;;10.20;90.40;;;;;;4846556;29;20049;-78
2022/05/21 22:43:57;;;;;;;16.00;6.70;;;10.20;90.50;;;;;;4861683;29;20097;-78
2022/05/21 22:46:39;;;;;;;14.27;6.55;;;10.10;90.30;;;;;;4862411;29;20053;-80
2022/05/21 22:49:16;;;;;;;16.58;6.65;;;10.10;90.30;;;;;;4861604;29;20045;-78
2022/05/21 22:51:47;;;;;;;19.38;6.63;;;10.10;90.40;;;;;;4862017;29;20075;-78
2022/05/21 22:54:27;;;;;;;20.00;7.90;;;10.10;90.40;;;;;;4846868;29;20056;-79
2022/05/21 22:57:02;;;;;;;19.38;8.15;;;10.10;90.40;;;;;;4849713;29;20125;-78
2022/05/21 22:59:35;;;;;;;17.50;7.43;;;10.10;90.40;;;;;;4880890;29;20041;-80
2022/05/21 23:02:22;;;;;;;20.83;7.80;;;10.10;90.30;;;;;;4881514;29;20139;-78
2022/05/21 23:04:55;;;;;;;17.80;7.38;;;10.30;91.10;;;;;;4881603;29;20075;-79
2022/05/21 23:07:43;;;;;;;19.85;8.07;;;10.10;90.50;;;;;;4866955;29;20072;-79
2022/05/21 23:10:14;;;;;;;19.52;8.25;;;10.00;90.60;;;;;;4881615;29;20036;-80
2022/05/21 23:12:46;;;;;;;14.43;7.90;;;10.10;90.90;;;;;;4881635;29;20036;-80
2022/05/21 23:18:34;;;;;;;18.48;7.72;;;9.90;91.20;;;;;;4863575;29;20056;-79
2022/05/21 23:21:16;;;;;;;24.77;7.95;;;10.00;90.90;;;;;;4851247;29;20059;-79
2022/05/21 23:24:09;;;;;;;16.63;8.07;;;9.90;90.80;;;;;;4866005;29;20056;-78
2022/05/21 23:26:58;;;;;;;17.52;7.60;;;10.00;90.70;;;;;;4880994;29;20131;-78
2022/05/21 23:29:50;;;;;;;19.20;9.57;;;9.90;91.70;;;;;;4866525;29;20127;-80
2022/05/21 23:32:47;;;;;;;;;;;;;;;;;;;;;
2022/05/21 23:35:51;;;;;;;19.20;9.45;;;10.20;91.20;;;;;;4881123;29;20084;-80
2022/05/21 23:38:44;;;;;;;22.80;11.45;;;9.80;91.30;;;;;;4857818;29;20044;-81
2022/05/21 23:41:15;;;;;;;24.98;12.55;;;9.70;91.70;;;;;;4867134;29;20711;-79
2022/05/21 23:43:41;;;;;;;24.35;11.27;;;9.70;91.40;;;;;;4866211;29;20390;-79
2022/05/21 23:46:23;;;;;;;22.45;11.88;;;9.70;91.60;;;;;;4865828;29;20121;-80
2022/05/21 23:48:54;;;;;;;25.30;12.13;;;9.70;91.60;;;;;;4880960;29;20187;-79
2022/05/21 23:51:28;;;;;;;21.20;11.88;;;9.60;91.50;;;;;;4880673;29;20048;-79
2022/05/21 23:53:59;;;;;;;25.25;12.30;;;9.60;91.40;;;;;;4866292;29;20512;-80
2022/05/21 23:56:43;;;;;;;22.23;12.18;;;9.60;91.50;;;;;;4882789;29;20088;-80
2022/05/21 23:59:25;;;;;;;21.77;11.50;;;9.60;91.60;;;;;;4882021;29;20047;-76
